sensor_id;sensor_type;location;lat;lon;timestamp;temperature;humidity
56298;DHT22;42208;6.376;-10.782;2022-12-13T00:01:50;27.60;99.90
56298;DHT22;42208;6.376;-10.782;2022-12-13T00:04:21;27.60;99.90
56298;DHT22;42208;6.376;-10.782;2022-12-13T00:06:50;27.60;99.90
56298;DHT22;42208;6.376;-10.782;2022-12-13T00:09:19;27.50;99.90
56298;DHT22;42208;6.376;-10.782;2022-12-13T00:11:48;27.60;99.90
56298;DHT22;42208;6.376;-10.782;2022-12-13T00:14:18;27.60;99.90
56298;DHT22;42208;6.376;-10.782;2022-12-13T00:16:48;27.50;99.90
56298;DHT22;42208;6.376;-10.782;2022-12-13T00:19:17;27.50;99.90
56298;DHT22;42208;6.376;-10.782;2022-12-13T00:21:46;27.50;99.90
56298;DHT22;42208;6.376;-10.782;2022-12-13T00:24:15;27.50;99.90
56298;DHT22;42208;6.376;-10.782;2022-12-13T00:26:44;27.40;99.90
56298;DHT22;42208;6.376;-10.782;2022-12-13T00:29:12;27.40;99.90
56298;DHT22;42208;6.376;-10.782;2022-12-13T00:31:40;27.40;99.90
56298;DHT22;42208;6.376;-10.782;2022-12-13T00:34:27;27.40;99.90
56298;DHT22;42208;6.376;-10.782;2022-12-13T00:36:55;27.40;99.90
56298;DHT22;42208;6.376;-10.782;2022-12-13T00:39:25;27.40;99.90
56298;DHT22;42208;6.376;-10.782;2022-12-13T00:41:53;27.40;99.90
56298;DHT22;42208;6.376;-10.782;2022-12-13T00:44:22;27.30;99.90
56298;DHT22;42208;6.376;-10.782;2022-12-13T00:46:50;27.40;99.90
56298;DHT22;42208;6.376;-10.782;2022-12-13T00:49:18;27.40;99.90
56298;DHT22;42208;6.376;-10.782;2022-12-13T00:51:47;27.40;99.90
56298;DHT22;42208;6.376;-10.782;2022-12-13T00:54:16;27.40;99.90
56298;DHT22;42208;6.376;-10.782;2022-12-13T00:56:44;27.50;99.90
56298;DHT22;42208;6.376;-10.782;2022-12-13T00:59:14;27.40;99.90
56298;DHT22;42208;6.376;-10.782;2022-12-13T01:01:43;27.40;99.90
56298;DHT22;42208;6.376;-10.782;2022-12-13T01:04:12;27.40;99.90
56298;DHT22;42208;6.376;-10.782;2022-12-13T01:06:44;27.40;99.90
56298;DHT22;42208;6.376;-10.782;2022-12-13T01:09:19;27.40;99.90
56298;DHT22;42208;6.376;-10.782;2022-12-13T01:11:49;27.40;99.90
56298;DHT22;42208;6.376;-10.782;2022-12-13T01:14:18;27.40;99.90
56298;DHT22;42208;6.376;-10.782;2022-12-13T01:16:46;27.40;99.90
56298;DHT22;42208;6.376;-10.782;2022-12-13T01:19:14;27.40;99.90
56298;DHT22;42208;6.376;-10.782;2022-12-13T01:21:43;27.40;99.90
56298;DHT22;42208;6.376;-10.782;2022-12-13T01:24:11;27.40;99.90
56298;DHT22;42208;6.376;-10.782;2022-12-13T01:26:40;27.40;99.90
56298;DHT22;42208;6.376;-10.782;2022-12-13T01:29:08;27.30;99.90
56298;DHT22;42208;6.376;-10.782;2022-12-13T01:31:36;27.30;99.90
56298;DHT22;42208;6.376;-10.782;2022-12-13T01:34:05;27.20;99.90
56298;DHT22;42208;6.376;-10.782;2022-12-13T01:36:33;27.20;99.90
56298;DHT22;42208;6.376;-10.782;2022-12-13T01:39:04;27.10;99.90
56298;DHT22;42208;6.376;-10.782;2022-12-13T01:41:43;27.00;99.90
56298;DHT22;42208;6.376;-10.782;2022-12-13T01:47:21;26.80;99.90
56298;DHT22;42208;6.376;-10.782;2022-12-13T01:49:53;26.70;99.90
56298;DHT22;42208;6.376;-10.782;2022-12-13T01:52:28;26.70;99.90
56298;DHT22;42208;6.376;-10.782;2022-12-13T01:54:59;26.60;99.90
56298;DHT22;42208;6.376;-10.782;2022-12-13T01:57:43;26.70;99.90
56298;DHT22;42208;6.376;-10.782;2022-12-13T02:00:13;26.60;99.90
56298;DHT22;42208;6.376;-10.782;2022-12-13T02:02:42;26.60;99.90
56298;DHT22;42208;6.376;-10.782;2022-12-13T02:05:20;26.50;99.90
56298;DHT22;42208;6.376;-10.782;2022-12-13T02:07:50;26.50;99.90
56298;DHT22;42208;6.376;-10.782;2022-12-13T02:10:19;26.50;99.90
56298;DHT22;42208;6.376;-10.782;2022-12-13T02:12:47;26.40;99.90
56298;DHT22;42208;6.376;-10.782;2022-12-13T02:15:17;26.40;99.90
56298;DHT22;42208;6.376;-10.782;2022-12-13T02:18:02;26.40;99.90
56298;DHT22;42208;6.376;-10.782;2022-12-13T02:23:40;26.30;99.90
56298;DHT22;42208;6.376;-10.782;2022-12-13T02:32:15;26.30;99.90
56298;DHT22;42208;6.376;-10.782;2022-12-13T02:35:27;26.30;99.90
56298;DHT22;42208;6.376;-10.782;2022-12-13T02:38:12;26.30;99.90
56298;DHT22;42208;6.376;-10.782;2022-12-13T02:43:44;26.30;99.90
56298;DHT22;42208;6.376;-10.782;2022-12-13T02:46:17;26.20;99.90
56298;DHT22;42208;6.376;-10.782;2022-12-13T02:48:49;26.10;99.90
56298;DHT22;42208;6.376;-10.782;2022-12-13T02:51:21;26.10;99.90
56298;DHT22;42208;6.376;-10.782;2022-12-13T02:53:50;26.10;99.90
56298;DHT22;42208;6.376;-10.782;2022-12-13T02:56:18;26.10;99.90
56298;DHT22;42208;6.376;-10.782;2022-12-13T02:58:51;26.00;99.90
56298;DHT22;42208;6.376;-10.782;2022-12-13T03:07:22;26.00;99.90
56298;DHT22;42208;6.376;-10.782;2022-12-13T03:10:20;25.90;99.90
56298;DHT22;42208;6.376;-10.782;2022-12-13T03:13:00;26.00;99.90
56298;DHT22;42208;6.376;-10.782;2022-12-13T03:16:07;25.90;99.90
56298;DHT22;42208;6.376;-10.782;2022-12-13T03:18:27;26.00;99.90
56298;DHT22;42208;6.376;-10.782;2022-12-13T03:21:06;26.10;99.90
56298;DHT22;42208;6.376;-10.782;2022-12-13T03:23:36;26.10;99.90
56298;DHT22;42208;6.376;-10.782;2022-12-13T03:26:11;26.10;99.90
56298;DHT22;42208;6.376;-10.782;2022-12-13T03:28:40;26.00;99.90
56298;DHT22;42208;6.376;-10.782;2022-12-13T03:31:09;26.00;99.90
56298;DHT22;42208;6.376;-10.782;2022-12-13T03:33:37;26.00;99.90
56298;DHT22;42208;6.376;-10.782;2022-12-13T03:36:06;26.00;99.90
56298;DHT22;42208;6.376;-10.782;2022-12-13T03:38:35;26.00;99.90
56298;DHT22;42208;6.376;-10.782;2022-12-13T03:41:10;25.90;99.90
56298;DHT22;42208;6.376;-10.782;2022-12-13T03:43:40;25.90;99.90
56298;DHT22;42208;6.376;-10.782;2022-12-13T03:46:09;25.90;99.90
56298;DHT22;42208;6.376;-10.782;2022-12-13T03:48:38;25.90;99.90
56298;DHT22;42208;6.376;-10.782;2022-12-13T03:51:06;25.90;99.90
56298;DHT22;42208;6.376;-10.782;2022-12-13T03:53:35;25.90;99.90
56298;DHT22;42208;6.376;-10.782;2022-12-13T03:56:05;25.90;99.90
56298;DHT22;42208;6.376;-10.782;2022-12-13T03:58:34;25.80;99.90
56298;DHT22;42208;6.376;-10.782;2022-12-13T04:01:06;25.90;99.90
56298;DHT22;42208;6.376;-10.782;2022-12-13T04:03:36;25.80;99.90
56298;DHT22;42208;6.376;-10.782;2022-12-13T04:06:04;25.80;99.90
56298;DHT22;42208;6.376;-10.782;2022-12-13T04:08:34;25.80;99.90
56298;DHT22;42208;6.376;-10.782;2022-12-13T04:11:03;25.70;99.90
56298;DHT22;42208;6.376;-10.782;2022-12-13T04:13:32;25.70;99.90
56298;DHT22;42208;6.376;-10.782;2022-12-13T04:16:01;25.70;99.90
56298;DHT22;42208;6.376;-10.782;2022-12-13T04:18:30;25.70;99.90
56298;DHT22;42208;6.376;-10.782;2022-12-13T04:20:58;25.70;99.90
56298;DHT22;42208;6.376;-10.782;2022-12-13T04:23:26;25.70;99.90
56298;DHT22;42208;6.376;-10.782;2022-12-13T04:25:55;25.70;99.90
56298;DHT22;42208;6.376;-10.782;2022-12-13T04:28:23;25.60;99.90
56298;DHT22;42208;6.376;-10.782;2022-12-13T04:30:52;25.60;99.90
56298;DHT22;42208;6.376;-10.782;2022-12-13T04:33:21;25.60;99.90
56298;DHT22;42208;6.376;-10.782;2022-12-13T04:35:50;25.70;99.90
56298;DHT22;42208;6.376;-10.782;2022-12-13T04:38:19;25.70;99.90
56298;DHT22;42208;6.376;-10.782;2022-12-13T04:40:48;25.70;99.90
56298;DHT22;42208;6.376;-10.782;2022-12-13T04:43:16;25.70;99.90
56298;DHT22;42208;6.376;-10.782;2022-12-13T04:45:45;25.70;99.90
56298;DHT22;42208;6.376;-10.782;2022-12-13T04:48:13;25.70;99.90
56298;DHT22;42208;6.376;-10.782;2022-12-13T04:50:59;25.70;99.90
56298;DHT22;42208;6.376;-10.782;2022-12-13T04:53:29;25.60;99.90
56298;DHT22;42208;6.376;-10.782;2022-12-13T04:55:57;25.60;99.90
56298;DHT22;42208;6.376;-10.782;2022-12-13T04:58:26;25.60;99.90
56298;DHT22;42208;6.376;-10.782;2022-12-13T05:00:55;25.60;99.90
56298;DHT22;42208;6.376;-10.782;2022-12-13T05:03:24;25.60;99.90
56298;DHT22;42208;6.376;-10.782;2022-12-13T05:05:52;25.50;99.90
56298;DHT22;42208;6.376;-10.782;2022-12-13T05:08:21;25.50;99.90
56298;DHT22;42208;6.376;-10.782;2022-12-13T05:10:49;25.50;99.90
56298;DHT22;42208;6.376;-10.782;2022-12-13T05:13:17;25.50;99.90
56298;DHT22;42208;6.376;-10.782;2022-12-13T05:15:45;25.50;99.90
56298;DHT22;42208;6.376;-10.782;2022-12-13T05:18:21;25.50;99.90
56298;DHT22;42208;6.376;-10.782;2022-12-13T05:20:50;25.50;99.90
56298;DHT22;42208;6.376;-10.782;2022-12-13T05:23:19;25.60;99.90
56298;DHT22;42208;6.376;-10.782;2022-12-13T05:25:52;25.50;99.90
56298;DHT22;42208;6.376;-10.782;2022-12-13T05:28:20;25.60;99.90
56298;DHT22;42208;6.376;-10.782;2022-12-13T05:30:56;25.60;99.90
56298;DHT22;42208;6.376;-10.782;2022-12-13T05:33:25;25.60;99.90
56298;DHT22;42208;6.376;-10.782;2022-12-13T05:35:53;25.60;99.90
56298;DHT22;42208;6.376;-10.782;2022-12-13T05:38:28;25.60;99.90
56298;DHT22;42208;6.376;-10.782;2022-12-13T05:40:57;25.50;99.90
56298;DHT22;42208;6.376;-10.782;2022-12-13T05:43:26;25.50;99.90
56298;DHT22;42208;6.376;-10.782;2022-12-13T05:46:13;25.50;99.90
56298;DHT22;42208;6.376;-10.782;2022-12-13T05:48:41;25.40;99.90
56298;DHT22;42208;6.376;-10.782;2022-12-13T05:51:10;25.40;99.90
56298;DHT22;42208;6.376;-10.782;2022-12-13T05:53:40;25.30;99.90
56298;DHT22;42208;6.376;-10.782;2022-12-13T05:56:09;25.30;99.90
56298;DHT22;42208;6.376;-10.782;2022-12-13T05:58:39;25.30;99.90
56298;DHT22;42208;6.376;-10.782;2022-12-13T06:01:10;25.30;99.90
56298;DHT22;42208;6.376;-10.782;2022-12-13T06:03:39;25.30;99.90
56298;DHT22;42208;6.376;-10.782;2022-12-13T06:06:10;25.30;99.90
56298;DHT22;42208;6.376;-10.782;2022-12-13T06:08:39;25.40;99.90
56298;DHT22;42208;6.376;-10.782;2022-12-13T06:11:07;25.30;99.90
56298;DHT22;42208;6.376;-10.782;2022-12-13T06:13:42;25.30;99.90
56298;DHT22;42208;6.376;-10.782;2022-12-13T06:16:12;25.30;99.90
56298;DHT22;42208;6.376;-10.782;2022-12-13T06:18:51;25.30;99.90
56298;DHT22;42208;6.376;-10.782;2022-12-13T06:21:33;25.30;99.90
56298;DHT22;42208;6.376;-10.782;2022-12-13T06:24:10;25.30;99.90
56298;DHT22;42208;6.376;-10.782;2022-12-13T06:26:38;25.30;99.90
56298;DHT22;42208;6.376;-10.782;2022-12-13T06:29:07;25.30;99.90
56298;DHT22;42208;6.376;-10.782;2022-12-13T06:31:35;25.30;99.90
56298;DHT22;42208;6.376;-10.782;2022-12-13T06:34:04;25.30;99.90
56298;DHT22;42208;6.376;-10.782;2022-12-13T06:36:42;25.30;99.90
56298;DHT22;42208;6.376;-10.782;2022-12-13T06:39:10;25.30;99.90
56298;DHT22;42208;6.376;-10.782;2022-12-13T06:41:38;25.30;99.90
56298;DHT22;42208;6.376;-10.782;2022-12-13T06:44:07;25.30;99.90
56298;DHT22;42208;6.376;-10.782;2022-12-13T06:46:35;25.30;99.90
56298;DHT22;42208;6.376;-10.782;2022-12-13T06:49:07;25.30;99.90
56298;DHT22;42208;6.376;-10.782;2022-12-13T06:51:36;25.30;99.90
56298;DHT22;42208;6.376;-10.782;2022-12-13T06:54:04;25.20;99.90
56298;DHT22;42208;6.376;-10.782;2022-12-13T06:56:32;25.20;99.90
56298;DHT22;42208;6.376;-10.782;2022-12-13T06:59:00;25.20;99.90
56298;DHT22;42208;6.376;-10.782;2022-12-13T07:01:30;25.20;99.90
56298;DHT22;42208;6.376;-10.782;2022-12-13T07:04:05;25.20;99.90
56298;DHT22;42208;6.376;-10.782;2022-12-13T07:06:53;25.20;99.90
56298;DHT22;42208;6.376;-10.782;2022-12-13T07:09:29;25.30;99.90
56298;DHT22;42208;6.376;-10.782;2022-12-13T07:11:58;25.30;99.90
56298;DHT22;42208;6.376;-10.782;2022-12-13T07:14:27;25.30;99.90
56298;DHT22;42208;6.376;-10.782;2022-12-13T07:16:57;25.30;99.90
56298;DHT22;42208;6.376;-10.782;2022-12-13T07:19:30;25.40;99.90
56298;DHT22;42208;6.376;-10.782;2022-12-13T07:22:08;25.40;99.90
56298;DHT22;42208;6.376;-10.782;2022-12-13T07:24:37;25.40;99.90
56298;DHT22;42208;6.376;-10.782;2022-12-13T07:27:05;25.40;99.90
56298;DHT22;42208;6.376;-10.782;2022-12-13T07:29:33;25.40;99.90
56298;DHT22;42208;6.376;-10.782;2022-12-13T07:32:01;25.40;99.90
56298;DHT22;42208;6.376;-10.782;2022-12-13T07:34:30;25.40;99.90
56298;DHT22;42208;6.376;-10.782;2022-12-13T07:36:58;25.50;99.90
56298;DHT22;42208;6.376;-10.782;2022-12-13T07:39:26;25.60;99.90
56298;DHT22;42208;6.376;-10.782;2022-12-13T07:41:55;25.60;99.90
56298;DHT22;42208;6.376;-10.782;2022-12-13T07:44:23;25.60;99.90
56298;DHT22;42208;6.376;-10.782;2022-12-13T07:46:53;25.70;99.90
56298;DHT22;42208;6.376;-10.782;2022-12-13T07:49:22;25.70;99.90
56298;DHT22;42208;6.376;-10.782;2022-12-13T07:51:50;25.80;99.90
56298;DHT22;42208;6.376;-10.782;2022-12-13T07:54:18;25.90;99.90
56298;DHT22;42208;6.376;-10.782;2022-12-13T07:56:49;25.90;99.90
56298;DHT22;42208;6.376;-10.782;2022-12-13T07:59:17;25.90;99.90
56298;DHT22;42208;6.376;-10.782;2022-12-13T08:01:55;25.90;99.90
56298;DHT22;42208;6.376;-10.782;2022-12-13T08:04:28;25.90;99.90
56298;DHT22;42208;6.376;-10.782;2022-12-13T08:07:08;26.00;99.90
56298;DHT22;42208;6.376;-10.782;2022-12-13T08:09:37;26.10;99.90
56298;DHT22;42208;6.376;-10.782;2022-12-13T08:12:05;26.10;99.90
56298;DHT22;42208;6.376;-10.782;2022-12-13T08:14:34;26.10;99.90
56298;DHT22;42208;6.376;-10.782;2022-12-13T08:17:02;26.20;99.90
56298;DHT22;42208;6.376;-10.782;2022-12-13T08:19:30;26.30;99.90
56298;DHT22;42208;6.376;-10.782;2022-12-13T08:21:58;26.30;99.90
56298;DHT22;42208;6.376;-10.782;2022-12-13T08:24:29;26.40;99.90
56298;DHT22;42208;6.376;-10.782;2022-12-13T08:27:00;26.50;99.90
56298;DHT22;42208;6.376;-10.782;2022-12-13T08:29:30;26.50;99.90
56298;DHT22;42208;6.376;-10.782;2022-12-13T08:32:04;26.60;99.90
56298;DHT22;42208;6.376;-10.782;2022-12-13T08:34:32;26.70;99.90
56298;DHT22;42208;6.376;-10.782;2022-12-13T08:37:01;26.70;99.90
56298;DHT22;42208;6.376;-10.782;2022-12-13T08:39:32;26.80;99.90
56298;DHT22;42208;6.376;-10.782;2022-12-13T08:42:06;26.90;99.90
56298;DHT22;42208;6.376;-10.782;2022-12-13T08:44:51;26.90;99.90
56298;DHT22;42208;6.376;-10.782;2022-12-13T08:47:22;26.90;99.90
56298;DHT22;42208;6.376;-10.782;2022-12-13T08:49:57;26.90;99.90
56298;DHT22;42208;6.376;-10.782;2022-12-13T08:52:31;26.90;99.90
56298;DHT22;42208;6.376;-10.782;2022-12-13T08:55:08;27.00;99.90
56298;DHT22;42208;6.376;-10.782;2022-12-13T08:57:38;27.10;99.90
56298;DHT22;42208;6.376;-10.782;2022-12-13T09:00:09;27.10;99.90
56298;DHT22;42208;6.376;-10.782;2022-12-13T09:02:38;27.20;99.90
56298;DHT22;42208;6.376;-10.782;2022-12-13T09:05:08;27.30;99.90
56298;DHT22;42208;6.376;-10.782;2022-12-13T09:07:36;27.30;99.90
56298;DHT22;42208;6.376;-10.782;2022-12-13T09:10:05;27.40;99.90
56298;DHT22;42208;6.376;-10.782;2022-12-13T09:12:54;27.40;99.90
56298;DHT22;42208;6.376;-10.782;2022-12-13T09:15:30;27.50;99.90
56298;DHT22;42208;6.376;-10.782;2022-12-13T09:18:01;27.60;99.90
56298;DHT22;42208;6.376;-10.782;2022-12-13T09:20:33;27.60;99.90
56298;DHT22;42208;6.376;-10.782;2022-12-13T09:23:09;27.70;99.90
56298;DHT22;42208;6.376;-10.782;2022-12-13T09:25:55;27.80;99.90
56298;DHT22;42208;6.376;-10.782;2022-12-13T09:28:34;27.80;99.90
56298;DHT22;42208;6.376;-10.782;2022-12-13T09:31:12;27.90;99.90
56298;DHT22;42208;6.376;-10.782;2022-12-13T09:33:41;28.00;99.90
56298;DHT22;42208;6.376;-10.782;2022-12-13T09:36:15;28.00;99.90
56298;DHT22;42208;6.376;-10.782;2022-12-13T09:38:44;28.10;99.90
56298;DHT22;42208;6.376;-10.782;2022-12-13T09:41:31;28.10;99.90
56298;DHT22;42208;6.376;-10.782;2022-12-13T09:44:15;28.20;99.90
56298;DHT22;42208;6.376;-10.782;2022-12-13T09:47:01;28.20;99.90
56298;DHT22;42208;6.376;-10.782;2022-12-13T09:49:44;28.20;99.90
56298;DHT22;42208;6.376;-10.782;2022-12-13T09:52:22;28.20;99.90
56298;DHT22;42208;6.376;-10.782;2022-12-13T09:54:54;28.30;99.90
56298;DHT22;42208;6.376;-10.782;2022-12-13T09:57:30;28.30;99.90
56298;DHT22;42208;6.376;-10.782;2022-12-13T10:00:06;28.40;99.90
56298;DHT22;42208;6.376;-10.782;2022-12-13T10:02:44;28.40;99.90
56298;DHT22;42208;6.376;-10.782;2022-12-13T10:05:17;28.60;99.90
56298;DHT22;42208;6.376;-10.782;2022-12-13T10:07:52;28.70;99.90
56298;DHT22;42208;6.376;-10.782;2022-12-13T10:10:21;28.70;99.90
56298;DHT22;42208;6.376;-10.782;2022-12-13T10:13:15;28.70;99.90
56298;DHT22;42208;6.376;-10.782;2022-12-13T10:15:50;28.80;99.90
56298;DHT22;42208;6.376;-10.782;2022-12-13T10:18:32;29.00;99.90
56298;DHT22;42208;6.376;-10.782;2022-12-13T10:21:49;29.10;99.90
56298;DHT22;42208;6.376;-10.782;2022-12-13T10:24:23;29.10;99.90
56298;DHT22;42208;6.376;-10.782;2022-12-13T10:27:14;29.00;99.90
56298;DHT22;42208;6.376;-10.782;2022-12-13T10:30:18;28.90;99.90
56298;DHT22;42208;6.376;-10.782;2022-12-13T10:32:59;28.80;99.90
56298;DHT22;42208;6.376;-10.782;2022-12-13T10:35:31;28.80;99.90
56298;DHT22;42208;6.376;-10.782;2022-12-13T10:38:47;28.80;99.90
56298;DHT22;42208;6.376;-10.782;2022-12-13T10:40:58;28.80;99.90
56298;DHT22;42208;6.376;-10.782;2022-12-13T10:43:28;28.90;99.90
56298;DHT22;42208;6.376;-10.782;2022-12-13T10:45:57;28.90;99.90
56298;DHT22;42208;6.376;-10.782;2022-12-13T10:48:39;28.90;99.90
56298;DHT22;42208;6.376;-10.782;2022-12-13T10:51:14;29.00;99.90
56298;DHT22;42208;6.376;-10.782;2022-12-13T10:53:47;29.00;99.90
56298;DHT22;42208;6.376;-10.782;2022-12-13T10:56:18;28.90;99.90
56298;DHT22;42208;6.376;-10.782;2022-12-13T10:59:22;28.80;99.90
56298;DHT22;42208;6.376;-10.782;2022-12-13T11:01:52;28.90;99.90
56298;DHT22;42208;6.376;-10.782;2022-12-13T11:04:25;28.90;99.90
56298;DHT22;42208;6.376;-10.782;2022-12-13T11:06:56;29.00;99.90
56298;DHT22;42208;6.376;-10.782;2022-12-13T11:09:33;29.10;99.90
56298;DHT22;42208;6.376;-10.782;2022-12-13T11:12:14;29.10;99.90
56298;DHT22;42208;6.376;-10.782;2022-12-13T11:15:00;29.30;99.90
56298;DHT22;42208;6.376;-10.782;2022-12-13T11:17:32;29.50;99.90
56298;DHT22;42208;6.376;-10.782;2022-12-13T11:20:06;29.60;99.90
56298;DHT22;42208;6.376;-10.782;2022-12-13T11:22:42;29.60;99.90
56298;DHT22;42208;6.376;-10.782;2022-12-13T11:25:24;29.70;99.90
56298;DHT22;42208;6.376;-10.782;2022-12-13T11:37:00;29.30;99.90
56298;DHT22;42208;6.376;-10.782;2022-12-13T11:39:39;29.30;99.90
56298;DHT22;42208;6.376;-10.782;2022-12-13T11:47:54;29.50;99.90
56298;DHT22;42208;6.376;-10.782;2022-12-13T11:50:44;29.70;99.90
56298;DHT22;42208;6.376;-10.782;2022-12-13T11:56:23;29.90;99.90
56298;DHT22;42208;6.376;-10.782;2022-12-13T11:59:09;30.10;99.90
56298;DHT22;42208;6.376;-10.782;2022-12-13T12:02:08;30.10;99.90
56298;DHT22;42208;6.376;-10.782;2022-12-13T12:04:50;30.00;99.90
56298;DHT22;42208;6.376;-10.782;2022-12-13T12:07:49;30.10;99.90
56298;DHT22;42208;6.376;-10.782;2022-12-13T12:10:45;29.90;99.90
56298;DHT22;42208;6.376;-10.782;2022-12-13T12:13:30;29.90;99.90
56298;DHT22;42208;6.376;-10.782;2022-12-13T12:19:16;29.90;99.90
56298;DHT22;42208;6.376;-10.782;2022-12-13T12:27:18;29.80;99.90
56298;DHT22;42208;6.376;-10.782;2022-12-13T12:30:12;29.90;99.90
56298;DHT22;42208;6.376;-10.782;2022-12-13T12:41:56;30.60;99.90
56298;DHT22;42208;6.376;-10.782;2022-12-13T12:50:14;30.90;99.90
56298;DHT22;42208;6.376;-10.782;2022-12-13T12:55:37;30.80;99.90
56298;DHT22;42208;6.376;-10.782;2022-12-13T12:58:38;30.80;99.90
56298;DHT22;42208;6.376;-10.782;2022-12-13T13:03:42;31.00;99.90
56298;DHT22;42208;6.376;-10.782;2022-12-13T13:06:15;31.00;99.90
56298;DHT22;42208;6.376;-10.782;2022-12-13T13:09:00;31.10;99.90
56298;DHT22;42208;6.376;-10.782;2022-12-13T13:16:33;31.10;99.90
56298;DHT22;42208;6.376;-10.782;2022-12-13T13:21:44;30.80;99.90
56298;DHT22;42208;6.376;-10.782;2022-12-13T13:24:16;30.70;99.90
56298;DHT22;42208;6.376;-10.782;2022-12-13T13:26:53;30.70;99.90
56298;DHT22;42208;6.376;-10.782;2022-12-13T13:34:49;30.90;99.90
56298;DHT22;42208;6.376;-10.782;2022-12-13T13:39:54;31.00;99.90
56298;DHT22;42208;6.376;-10.782;2022-12-13T13:42:25;31.20;99.90
56298;DHT22;42208;6.376;-10.782;2022-12-13T13:44:59;31.20;99.90
56298;DHT22;42208;6.376;-10.782;2022-12-13T13:47:36;31.20;99.90
56298;DHT22;42208;6.376;-10.782;2022-12-13T14:52:48;31.70;99.90
56298;DHT22;42208;6.376;-10.782;2022-12-13T14:55:31;31.80;99.90
56298;DHT22;42208;6.376;-10.782;2022-12-13T14:58:01;31.90;99.90
56298;DHT22;42208;6.376;-10.782;2022-12-13T15:00:38;31.80;99.90
56298;DHT22;42208;6.376;-10.782;2022-12-13T15:03:09;32.10;99.90
56298;DHT22;42208;6.376;-10.782;2022-12-13T15:05:47;32.30;99.90
56298;DHT22;42208;6.376;-10.782;2022-12-13T15:08:19;32.50;99.90
56298;DHT22;42208;6.376;-10.782;2022-12-13T15:10:55;32.50;99.90
56298;DHT22;42208;6.376;-10.782;2022-12-13T15:19:06;31.70;99.90
56298;DHT22;42208;6.376;-10.782;2022-12-13T15:22:03;31.40;99.90
56298;DHT22;42208;6.376;-10.782;2022-12-13T15:24:39;31.30;99.90
56298;DHT22;42208;6.376;-10.782;2022-12-13T15:27:16;31.20;99.90
56298;DHT22;42208;6.376;-10.782;2022-12-13T15:29:45;31.60;99.90
56298;DHT22;42208;6.376;-10.782;2022-12-13T15:32:16;31.80;99.90
56298;DHT22;42208;6.376;-10.782;2022-12-13T15:34:46;32.10;99.90
56298;DHT22;42208;6.376;-10.782;2022-12-13T15:37:22;32.30;99.90
56298;DHT22;42208;6.376;-10.782;2022-12-13T15:39:58;32.50;99.90
56298;DHT22;42208;6.376;-10.782;2022-12-13T15:42:34;32.70;99.90
56298;DHT22;42208;6.376;-10.782;2022-12-13T15:45:06;32.70;99.90
56298;DHT22;42208;6.376;-10.782;2022-12-13T15:47:45;32.90;99.90
56298;DHT22;42208;6.376;-10.782;2022-12-13T15:50:35;33.20;99.90
56298;DHT22;42208;6.376;-10.782;2022-12-13T15:55:49;33.00;99.90
56298;DHT22;42208;6.376;-10.782;2022-12-13T16:00:54;33.00;99.90
56298;DHT22;42208;6.376;-10.782;2022-12-13T16:03:24;33.10;99.90
56298;DHT22;42208;6.376;-10.782;2022-12-13T16:05:55;33.40;99.90
56298;DHT22;42208;6.376;-10.782;2022-12-13T16:08:32;33.40;99.90
56298;DHT22;42208;6.376;-10.782;2022-12-13T16:11:02;33.20;99.90
56298;DHT22;42208;6.376;-10.782;2022-12-13T16:13:36;33.10;99.90
56298;DHT22;42208;6.376;-10.782;2022-12-13T16:18:58;33.00;99.90
56298;DHT22;42208;6.376;-10.782;2022-12-13T16:21:27;33.00;99.90
56298;DHT22;42208;6.376;-10.782;2022-12-13T16:23:55;33.00;99.90
56298;DHT22;42208;6.376;-10.782;2022-12-13T16:26:26;32.80;99.90
56298;DHT22;42208;6.376;-10.782;2022-12-13T16:28:55;32.70;99.90
56298;DHT22;42208;6.376;-10.782;2022-12-13T16:31:25;32.60;99.90
56298;DHT22;42208;6.376;-10.782;2022-12-13T16:33:54;32.30;99.90
56298;DHT22;42208;6.376;-10.782;2022-12-13T16:36:23;32.20;99.90
56298;DHT22;42208;6.376;-10.782;2022-12-13T16:38:52;32.20;99.90
56298;DHT22;42208;6.376;-10.782;2022-12-13T16:41:20;32.30;99.90
56298;DHT22;42208;6.376;-10.782;2022-12-13T16:43:54;32.50;99.90
56298;DHT22;42208;6.376;-10.782;2022-12-13T16:46:23;32.30;99.90
56298;DHT22;42208;6.376;-10.782;2022-12-13T16:49:23;32.20;99.90
56298;DHT22;42208;6.376;-10.782;2022-12-13T16:51:53;32.10;99.90
56298;DHT22;42208;6.376;-10.782;2022-12-13T16:54:24;32.20;99.90
56298;DHT22;42208;6.376;-10.782;2022-12-13T16:56:54;32.20;99.90
56298;DHT22;42208;6.376;-10.782;2022-12-13T16:59:24;32.10;99.90
56298;DHT22;42208;6.376;-10.782;2022-12-13T17:01:53;32.00;99.90
56298;DHT22;42208;6.376;-10.782;2022-12-13T17:04:25;31.60;99.90
56298;DHT22;42208;6.376;-10.782;2022-12-13T17:06:53;31.60;99.90
56298;DHT22;42208;6.376;-10.782;2022-12-13T17:09:22;31.40;99.90
56298;DHT22;42208;6.376;-10.782;2022-12-13T17:11:51;31.30;99.90
56298;DHT22;42208;6.376;-10.782;2022-12-13T17:14:19;31.40;99.90
56298;DHT22;42208;6.376;-10.782;2022-12-13T17:16:47;31.30;99.90
56298;DHT22;42208;6.376;-10.782;2022-12-13T17:19:19;31.10;99.90
56298;DHT22;42208;6.376;-10.782;2022-12-13T17:21:47;31.00;99.90
56298;DHT22;42208;6.376;-10.782;2022-12-13T17:24:15;31.00;99.90
56298;DHT22;42208;6.376;-10.782;2022-12-13T17:26:44;30.90;99.90
56298;DHT22;42208;6.376;-10.782;2022-12-13T17:29:24;30.60;99.90
56298;DHT22;42208;6.376;-10.782;2022-12-13T17:31:53;30.60;99.90
56298;DHT22;42208;6.376;-10.782;2022-12-13T17:34:21;30.40;99.90
56298;DHT22;42208;6.376;-10.782;2022-12-13T17:36:49;30.20;99.90
56298;DHT22;42208;6.376;-10.782;2022-12-13T17:39:19;30.20;99.90
56298;DHT22;42208;6.376;-10.782;2022-12-13T17:41:47;30.20;99.90
56298;DHT22;42208;6.376;-10.782;2022-12-13T17:44:23;30.20;99.90
56298;DHT22;42208;6.376;-10.782;2022-12-13T17:46:53;30.20;99.90
56298;DHT22;42208;6.376;-10.782;2022-12-13T17:49:23;30.10;99.90
56298;DHT22;42208;6.376;-10.782;2022-12-13T17:51:52;30.00;99.90
56298;DHT22;42208;6.376;-10.782;2022-12-13T17:54:23;29.90;99.90
56298;DHT22;42208;6.376;-10.782;2022-12-13T17:56:52;29.90;99.90
56298;DHT22;42208;6.376;-10.782;2022-12-13T17:59:21;29.80;99.90
56298;DHT22;42208;6.376;-10.782;2022-12-13T18:01:50;29.80;99.90
56298;DHT22;42208;6.376;-10.782;2022-12-13T18:09:39;29.50;99.90
56298;DHT22;42208;6.376;-10.782;2022-12-13T18:12:07;29.50;99.90
56298;DHT22;42208;6.376;-10.782;2022-12-13T18:14:35;29.40;99.90
56298;DHT22;42208;6.376;-10.782;2022-12-13T18:17:04;29.30;99.90
56298;DHT22;42208;6.376;-10.782;2022-12-13T18:19:32;29.30;99.90
56298;DHT22;42208;6.376;-10.782;2022-12-13T18:22:01;29.30;99.90
56298;DHT22;42208;6.376;-10.782;2022-12-13T18:24:29;29.30;99.90
56298;DHT22;42208;6.376;-10.782;2022-12-13T18:26:57;29.20;99.90
56298;DHT22;42208;6.376;-10.782;2022-12-13T18:29:26;29.20;99.90
56298;DHT22;42208;6.376;-10.782;2022-12-13T18:31:54;29.00;99.90
56298;DHT22;42208;6.376;-10.782;2022-12-13T18:34:22;29.00;99.90
56298;DHT22;42208;6.376;-10.782;2022-12-13T18:36:51;28.90;99.90